Terminal Aerodrome Forecast
Issued by NWS

Home | Current Version | Previous Version | Text Only | Print | Product List | Glossary On
Versions: 1 2 3 4 5 6 7 8 9 10 11 12 13 14 15
620
FTUS45 KTFX 101133
TAFCTB
TAF
KCTB 101133Z 1012/1112 26015KT P6SM BKN200
      TEMPO 1013/1017 27022G34KT
     FM101800 26018G28KT P6SM BKN200
     FM110200 25018KT P6SM BKN200=

USA.gov is the U.S. government's official web portal to all federal, state and local government web resources and services.